sensor_id;sensor_type;location;lat;lon;timestamp;pressure;altitude;pressure_sealevel;temperature;humidity
76827;BME280;65788;52.284;20.890;2023-03-20T00:01:46;100352.41;;;21.64;30.57
76827;BME280;65788;52.284;20.890;2023-03-20T00:04:13;100349.23;;;21.52;31.96
76827;BME280;65788;52.284;20.890;2023-03-20T00:06:40;100349.89;;;21.31;32.41
76827;BME280;65788;52.284;20.890;2023-03-20T00:09:07;100342.58;;;21.18;32.50
76827;BME280;65788;52.284;20.890;2023-03-20T00:11:40;100346.52;;;21.12;32.58
76827;BME280;65788;52.284;20.890;2023-03-20T00:14:13;100343.48;;;21.08;32.64
76827;BME280;65788;52.284;20.890;2023-03-20T00:16:42;100343.73;;;21.03;32.64
76827;BME280;65788;52.284;20.890;2023-03-20T00:19:17;100343.20;;;20.94;32.79
76827;BME280;65788;52.284;20.890;2023-03-20T00:21:46;100344.68;;;20.84;32.89
76827;BME280;65788;52.284;20.890;2023-03-20T00:24:14;100344.48;;;20.76;32.97
76827;BME280;65788;52.284;20.890;2023-03-20T00:26:43;100343.30;;;20.67;33.05
76827;BME280;65788;52.284;20.890;2023-03-20T00:29:25;100344.36;;;20.61;33.10
76827;BME280;65788;52.284;20.890;2023-03-20T00:31:54;100342.84;;;20.48;33.35
76827;BME280;65788;52.284;20.890;2023-03-20T00:34:23;100344.66;;;20.43;34.13
76827;BME280;65788;52.284;20.890;2023-03-20T00:36:52;100339.71;;;20.36;34.56
76827;BME280;65788;52.284;20.890;2023-03-20T00:39:19;100339.67;;;20.29;34.72
76827;BME280;65788;52.284;20.890;2023-03-20T00:41:48;100336.92;;;20.22;34.79
76827;BME280;65788;52.284;20.890;2023-03-20T00:44:33;100328.89;;;20.18;34.87
76827;BME280;65788;52.284;20.890;2023-03-20T00:49:43;100335.14;;;20.08;35.00
76827;BME280;65788;52.284;20.890;2023-03-20T00:52:12;100333.99;;;20.07;34.98
76827;BME280;65788;52.284;20.890;2023-03-20T00:54:40;100328.84;;;20.06;34.98
76827;BME280;65788;52.284;20.890;2023-03-20T00:57:19;100326.21;;;20.00;35.06
76827;BME280;65788;52.284;20.890;2023-03-20T01:02:43;100324.05;;;19.92;35.20
76827;BME280;65788;52.284;20.890;2023-03-20T01:05:11;100325.64;;;19.92;35.14
76827;BME280;65788;52.284;20.890;2023-03-20T01:07:38;100328.15;;;19.93;35.15
76827;BME280;65788;52.284;20.890;2023-03-20T01:10:07;100318.58;;;19.89;35.16
76827;BME280;65788;52.284;20.890;2023-03-20T01:12:34;100322.77;;;19.83;35.18
76827;BME280;65788;52.284;20.890;2023-03-20T01:15:01;100320.08;;;19.78;35.26
76827;BME280;65788;52.284;20.890;2023-03-20T01:17:28;100319.38;;;19.76;35.26
76827;BME280;65788;52.284;20.890;2023-03-20T01:19:55;100317.71;;;19.75;35.29
76827;BME280;65788;52.284;20.890;2023-03-20T01:22:22;100318.41;;;19.76;35.21
76827;BME280;65788;52.284;20.890;2023-03-20T01:24:49;100317.60;;;19.75;35.25
76827;BME280;65788;52.284;20.890;2023-03-20T01:27:18;100322.16;;;19.71;35.25
76827;BME280;65788;52.284;20.890;2023-03-20T01:29:45;100318.80;;;19.69;35.25
76827;BME280;65788;52.284;20.890;2023-03-20T01:32:17;100317.81;;;19.64;35.33
76827;BME280;65788;52.284;20.890;2023-03-20T01:34:45;100313.27;;;19.60;35.38
76827;BME280;65788;52.284;20.890;2023-03-20T01:37:17;100311.27;;;19.61;35.31
76827;BME280;65788;52.284;20.890;2023-03-20T01:39:46;100308.97;;;19.54;35.44
76827;BME280;65788;52.284;20.890;2023-03-20T01:42:14;100309.45;;;19.57;35.35
76827;BME280;65788;52.284;20.890;2023-03-20T01:44:41;100308.50;;;19.55;35.35
76827;BME280;65788;52.284;20.890;2023-03-20T01:47:35;100310.82;;;19.53;35.41
76827;BME280;65788;52.284;20.890;2023-03-20T01:50:31;100302.77;;;19.51;35.38
76827;BME280;65788;52.284;20.890;2023-03-20T01:53:07;100301.21;;;19.52;35.35
76827;BME280;65788;52.284;20.890;2023-03-20T01:55:37;100296.14;;;19.51;35.28
76827;BME280;65788;52.284;20.890;2023-03-20T01:58:12;100287.54;;;19.48;35.38
76827;BME280;65788;52.284;20.890;2023-03-20T02:00:40;100289.01;;;19.47;35.40
76827;BME280;65788;52.284;20.890;2023-03-20T02:03:08;100290.61;;;19.45;35.39
76827;BME280;65788;52.284;20.890;2023-03-20T02:05:36;100290.81;;;19.44;35.35
76827;BME280;65788;52.284;20.890;2023-03-20T02:08:21;100291.39;;;19.44;35.38
76827;BME280;65788;52.284;20.890;2023-03-20T02:10:50;100296.39;;;19.46;35.33
76827;BME280;65788;52.284;20.890;2023-03-20T02:13:18;100292.36;;;19.43;35.34
76827;BME280;65788;52.284;20.890;2023-03-20T02:15:58;100296.02;;;19.39;35.42
76827;BME280;65788;52.284;20.890;2023-03-20T02:18:25;100292.16;;;19.37;35.42
76827;BME280;65788;52.284;20.890;2023-03-20T02:21:02;100292.94;;;19.35;35.47
76827;BME280;65788;52.284;20.890;2023-03-20T02:29:18;100296.25;;;19.31;35.42
76827;BME280;65788;52.284;20.890;2023-03-20T02:34:45;100296.95;;;19.29;35.42
76827;BME280;65788;52.284;20.890;2023-03-20T02:43:36;100290.08;;;19.22;35.44
76827;BME280;65788;52.284;20.890;2023-03-20T02:49:02;100284.19;;;19.22;35.44
76827;BME280;65788;52.284;20.890;2023-03-20T02:57:01;100288.09;;;19.20;35.40
76827;BME280;65788;52.284;20.890;2023-03-20T02:59:45;100288.65;;;19.20;35.35
76827;BME280;65788;52.284;20.890;2023-03-20T03:02:23;100289.50;;;19.19;35.32
76827;BME280;65788;52.284;20.890;2023-03-20T03:04:57;100290.41;;;19.18;35.34
76827;BME280;65788;52.284;20.890;2023-03-20T03:07:28;100285.46;;;19.18;35.32
76827;BME280;65788;52.284;20.890;2023-03-20T03:10:23;100280.23;;;19.14;35.35
76827;BME280;65788;52.284;20.890;2023-03-20T03:12:54;100283.52;;;19.13;35.34
76827;BME280;65788;52.284;20.890;2023-03-20T03:15:33;100279.05;;;19.13;35.32
76827;BME280;65788;52.284;20.890;2023-03-20T03:18:01;100279.39;;;19.15;35.29
76827;BME280;65788;52.284;20.890;2023-03-20T03:20:35;100280.85;;;19.12;35.30
76827;BME280;65788;52.284;20.890;2023-03-20T03:23:04;100281.80;;;19.12;35.27
76827;BME280;65788;52.284;20.890;2023-03-20T03:25:38;100284.00;;;19.12;35.27
76827;BME280;65788;52.284;20.890;2023-03-20T03:28:26;100280.60;;;19.12;35.25
76827;BME280;65788;52.284;20.890;2023-03-20T03:30:56;100278.05;;;19.07;35.28
76827;BME280;65788;52.284;20.890;2023-03-20T03:33:28;100278.08;;;19.05;35.30
76827;BME280;65788;52.284;20.890;2023-03-20T03:36:07;100278.76;;;19.05;35.28
76827;BME280;65788;52.284;20.890;2023-03-20T03:38:51;100274.21;;;19.07;35.22
76827;BME280;65788;52.284;20.890;2023-03-20T03:41:35;100274.88;;;19.05;35.26
76827;BME280;65788;52.284;20.890;2023-03-20T03:44:12;100271.72;;;19.05;35.22
76827;BME280;65788;52.284;20.890;2023-03-20T03:46:55;100272.27;;;19.06;35.15
76827;BME280;65788;52.284;20.890;2023-03-20T03:49:28;100267.98;;;19.02;35.21
76827;BME280;65788;52.284;20.890;2023-03-20T03:52:00;100267.85;;;19.03;35.16
76827;BME280;65788;52.284;20.890;2023-03-20T03:54:46;100266.59;;;18.99;35.20
76827;BME280;65788;52.284;20.890;2023-03-20T03:57:17;100269.89;;;19.00;35.18
76827;BME280;65788;52.284;20.890;2023-03-20T03:59:49;100267.70;;;19.01;35.16
76827;BME280;65788;52.284;20.890;2023-03-20T04:02:19;100266.48;;;19.03;35.10
76827;BME280;65788;52.284;20.890;2023-03-20T04:04:50;100265.23;;;19.00;35.14
76827;BME280;65788;52.284;20.890;2023-03-20T04:07:18;100263.70;;;18.97;35.28
76827;BME280;65788;52.284;20.890;2023-03-20T04:09:45;100260.19;;;18.94;35.41
76827;BME280;65788;52.284;20.890;2023-03-20T04:12:39;100261.95;;;18.93;35.51
76827;BME280;65788;52.284;20.890;2023-03-20T04:15:07;100257.66;;;18.95;35.63
76827;BME280;65788;52.284;20.890;2023-03-20T04:17:34;100259.88;;;18.95;35.69
76827;BME280;65788;52.284;20.890;2023-03-20T04:20:02;100261.72;;;18.95;35.75
76827;BME280;65788;52.284;20.890;2023-03-20T04:22:29;100263.35;;;18.91;35.82
76827;BME280;65788;52.284;20.890;2023-03-20T04:24:56;100263.40;;;18.90;35.89
76827;BME280;65788;52.284;20.890;2023-03-20T04:27:23;100265.53;;;18.93;35.85
76827;BME280;65788;52.284;20.890;2023-03-20T04:29:53;100265.83;;;18.91;35.88
76827;BME280;65788;52.284;20.890;2023-03-20T04:32:19;100265.08;;;18.89;35.91
76827;BME280;65788;52.284;20.890;2023-03-20T04:34:47;100263.41;;;18.88;35.94
76827;BME280;65788;52.284;20.890;2023-03-20T04:37:13;100262.45;;;18.86;35.99
76827;BME280;65788;52.284;20.890;2023-03-20T04:39:40;100257.85;;;18.87;36.03
76827;BME280;65788;52.284;20.890;2023-03-20T04:42:08;100261.58;;;18.91;36.09
76827;BME280;65788;52.284;20.890;2023-03-20T04:44:35;100260.55;;;18.90;36.15
76827;BME280;65788;52.284;20.890;2023-03-20T04:47:02;100264.52;;;18.88;36.15
76827;BME280;65788;52.284;20.890;2023-03-20T04:49:29;100268.40;;;18.84;36.25
76827;BME280;65788;52.284;20.890;2023-03-20T04:51:55;100268.73;;;18.87;36.21
76827;BME280;65788;52.284;20.890;2023-03-20T04:54:22;100271.63;;;18.87;36.15
76827;BME280;65788;52.284;20.890;2023-03-20T04:56:49;100274.28;;;18.87;36.13
76827;BME280;65788;52.284;20.890;2023-03-20T04:59:17;100273.28;;;18.81;36.25
76827;BME280;65788;52.284;20.890;2023-03-20T05:01:43;100268.03;;;18.80;36.27
76827;BME280;65788;52.284;20.890;2023-03-20T05:04:11;100270.49;;;18.84;36.18
76827;BME280;65788;52.284;20.890;2023-03-20T05:06:38;100273.55;;;18.87;36.08
76827;BME280;65788;52.284;20.890;2023-03-20T05:09:05;100270.54;;;18.84;36.15
76827;BME280;65788;52.284;20.890;2023-03-20T05:11:32;100273.39;;;18.85;36.08
76827;BME280;65788;52.284;20.890;2023-03-20T05:13:59;100274.64;;;18.83;36.08
76827;BME280;65788;52.284;20.890;2023-03-20T05:16:26;100277.65;;;18.87;35.98
76827;BME280;65788;52.284;20.890;2023-03-20T05:18:53;100280.42;;;18.88;35.93
76827;BME280;65788;52.284;20.890;2023-03-20T05:21:20;100283.18;;;18.89;35.89
76827;BME280;65788;52.284;20.890;2023-03-20T05:23:47;100282.39;;;18.89;35.89
76827;BME280;65788;52.284;20.890;2023-03-20T05:26:14;100278.21;;;18.89;35.84
76827;BME280;65788;52.284;20.890;2023-03-20T05:28:41;100283.20;;;18.91;35.78
76827;BME280;65788;52.284;20.890;2023-03-20T05:31:08;100282.33;;;18.94;35.72
76827;BME280;65788;52.284;20.890;2023-03-20T05:33:35;100279.54;;;18.98;35.62
76827;BME280;65788;52.284;20.890;2023-03-20T05:36:02;100282.23;;;19.05;35.44
76827;BME280;65788;52.284;20.890;2023-03-20T05:38:29;100279.39;;;19.07;35.40
76827;BME280;65788;52.284;20.890;2023-03-20T05:40:58;100276.92;;;19.03;35.44
76827;BME280;65788;52.284;20.890;2023-03-20T05:43:25;100276.20;;;18.98;35.54
76827;BME280;65788;52.284;20.890;2023-03-20T05:45:55;100278.41;;;19.00;35.51
76827;BME280;65788;52.284;20.890;2023-03-20T05:48:22;100277.14;;;18.97;35.50
76827;BME280;65788;52.284;20.890;2023-03-20T05:50:49;100278.65;;;18.95;35.59
76827;BME280;65788;52.284;20.890;2023-03-20T05:53:16;100278.51;;;18.98;35.81
76827;BME280;65788;52.284;20.890;2023-03-20T05:55:43;100277.17;;;18.99;35.89
76827;BME280;65788;52.284;20.890;2023-03-20T05:58:10;100275.89;;;18.99;35.86
76827;BME280;65788;52.284;20.890;2023-03-20T06:00:38;100280.36;;;18.95;36.27
76827;BME280;65788;52.284;20.890;2023-03-20T06:03:05;100283.25;;;18.96;37.21
76827;BME280;65788;52.284;20.890;2023-03-20T06:05:35;100279.14;;;19.00;37.40
76827;BME280;65788;52.284;20.890;2023-03-20T06:08:02;100278.27;;;19.03;37.38
76827;BME280;65788;52.284;20.890;2023-03-20T06:10:30;100279.23;;;19.11;37.20
76827;BME280;65788;52.284;20.890;2023-03-20T06:12:58;100280.59;;;19.10;37.03
76827;BME280;65788;52.284;20.890;2023-03-20T06:15:27;100281.23;;;19.09;37.85
76827;BME280;65788;52.284;20.890;2023-03-20T06:17:55;100277.58;;;19.15;37.73
76827;BME280;65788;52.284;20.890;2023-03-20T06:20:22;100280.20;;;19.20;37.47
76827;BME280;65788;52.284;20.890;2023-03-20T06:22:50;100279.67;;;19.20;37.52
76827;BME280;65788;52.284;20.890;2023-03-20T06:25:19;100280.52;;;19.22;37.59
76827;BME280;65788;52.284;20.890;2023-03-20T06:27:47;100277.42;;;19.25;37.54
76827;BME280;65788;52.284;20.890;2023-03-20T06:30:15;100280.27;;;19.33;37.30
76827;BME280;65788;52.284;20.890;2023-03-20T06:32:43;100279.61;;;19.37;37.08
76827;BME280;65788;52.284;20.890;2023-03-20T06:35:10;100285.48;;;19.40;36.82
76827;BME280;65788;52.284;20.890;2023-03-20T06:37:38;100292.26;;;19.40;36.61
76827;BME280;65788;52.284;20.890;2023-03-20T06:40:06;100297.68;;;19.46;36.40
76827;BME280;65788;52.284;20.890;2023-03-20T06:42:33;100299.55;;;19.51;36.21
76827;BME280;65788;52.284;20.890;2023-03-20T06:45:00;100298.05;;;19.58;36.05
76827;BME280;65788;52.284;20.890;2023-03-20T06:47:26;100298.26;;;19.68;35.83
76827;BME280;65788;52.284;20.890;2023-03-20T06:49:53;100302.23;;;19.80;35.60
76827;BME280;65788;52.284;20.890;2023-03-20T06:52:20;100306.89;;;19.91;35.38
76827;BME280;65788;52.284;20.890;2023-03-20T06:54:50;100299.02;;;20.03;35.15
76827;BME280;65788;52.284;20.890;2023-03-20T06:57:17;100302.48;;;20.12;34.96
76827;BME280;65788;52.284;20.890;2023-03-20T06:59:44;100302.72;;;20.18;34.83
76827;BME280;65788;52.284;20.890;2023-03-20T07:02:11;100306.33;;;20.24;34.71
76827;BME280;65788;52.284;20.890;2023-03-20T07:04:38;100306.87;;;20.30;34.58
76827;BME280;65788;52.284;20.890;2023-03-20T07:07:05;100305.59;;;20.35;34.48
76827;BME280;65788;52.284;20.890;2023-03-20T07:09:31;100305.31;;;20.39;34.38
76827;BME280;65788;52.284;20.890;2023-03-20T07:11:59;100304.80;;;20.46;34.24
76827;BME280;65788;52.284;20.890;2023-03-20T07:14:26;100305.90;;;20.51;34.12
76827;BME280;65788;52.284;20.890;2023-03-20T07:16:53;100303.19;;;20.56;34.00
76827;BME280;65788;52.284;20.890;2023-03-20T07:19:22;100301.41;;;20.59;33.94
76827;BME280;65788;52.284;20.890;2023-03-20T07:21:48;100301.05;;;20.60;33.90
76827;BME280;65788;52.284;20.890;2023-03-20T07:24:17;100303.88;;;20.63;33.85
76827;BME280;65788;52.284;20.890;2023-03-20T07:26:44;100305.01;;;20.66;33.77
76827;BME280;65788;52.284;20.890;2023-03-20T07:29:11;100304.38;;;20.68;33.72
76827;BME280;65788;52.284;20.890;2023-03-20T07:31:39;100300.95;;;20.70;33.68
76827;BME280;65788;52.284;20.890;2023-03-20T07:34:06;100302.43;;;20.75;33.56
76827;BME280;65788;52.284;20.890;2023-03-20T07:36:33;100307.56;;;20.79;33.48
76827;BME280;65788;52.284;20.890;2023-03-20T07:39:01;100304.75;;;20.80;33.45
76827;BME280;65788;52.284;20.890;2023-03-20T07:41:28;100305.38;;;20.82;33.39
76827;BME280;65788;52.284;20.890;2023-03-20T07:43:54;100308.65;;;20.82;33.43
76827;BME280;65788;52.284;20.890;2023-03-20T07:46:21;100306.70;;;20.82;33.39
76827;BME280;65788;52.284;20.890;2023-03-20T07:48:48;100308.88;;;20.92;35.01
76827;BME280;65788;52.284;20.890;2023-03-20T07:51:15;100302.48;;;20.99;35.06
76827;BME280;65788;52.284;20.890;2023-03-20T07:53:42;100302.19;;;21.08;34.76
76827;BME280;65788;52.284;20.890;2023-03-20T07:56:09;100303.16;;;21.13;35.03
76827;BME280;65788;52.284;20.890;2023-03-20T07:58:36;100303.05;;;21.19;34.63
76827;BME280;65788;52.284;20.890;2023-03-20T08:01:03;100304.59;;;21.22;34.65
76827;BME280;65788;52.284;20.890;2023-03-20T08:03:29;100302.91;;;21.29;34.49
76827;BME280;65788;52.284;20.890;2023-03-20T08:05:57;100300.94;;;21.32;33.88
76827;BME280;65788;52.284;20.890;2023-03-20T08:08:24;100300.55;;;21.34;33.73
76827;BME280;65788;52.284;20.890;2023-03-20T08:10:51;100297.94;;;21.41;33.75
76827;BME280;65788;52.284;20.890;2023-03-20T08:13:18;100296.52;;;21.48;33.65
76827;BME280;65788;52.284;20.890;2023-03-20T08:15:46;100292.90;;;21.54;33.31
76827;BME280;65788;52.284;20.890;2023-03-20T08:18:12;100296.73;;;21.58;33.31
76827;BME280;65788;52.284;20.890;2023-03-20T08:20:39;100295.43;;;21.59;33.55
76827;BME280;65788;52.284;20.890;2023-03-20T08:23:06;100296.48;;;21.68;33.37
76827;BME280;65788;52.284;20.890;2023-03-20T08:25:33;100297.52;;;21.69;33.19
76827;BME280;65788;52.284;20.890;2023-03-20T08:28:00;100299.39;;;21.68;33.14
76827;BME280;65788;52.284;20.890;2023-03-20T08:30:27;100297.48;;;21.72;33.01
76827;BME280;65788;52.284;20.890;2023-03-20T08:32:54;100296.35;;;21.76;32.88
76827;BME280;65788;52.284;20.890;2023-03-20T08:35:24;100292.71;;;21.80;32.75
76827;BME280;65788;52.284;20.890;2023-03-20T08:37:51;100298.29;;;21.85;32.66
76827;BME280;65788;52.284;20.890;2023-03-20T08:40:18;100297.02;;;21.86;32.67
76827;BME280;65788;52.284;20.890;2023-03-20T08:42:45;100297.27;;;21.89;32.75
76827;BME280;65788;52.284;20.890;2023-03-20T08:45:11;100295.79;;;21.93;32.50
76827;BME280;65788;52.284;20.890;2023-03-20T08:47:38;100297.81;;;21.93;32.40
76827;BME280;65788;52.284;20.890;2023-03-20T08:50:06;100296.63;;;21.97;32.31
76827;BME280;65788;52.284;20.890;2023-03-20T08:52:34;100296.56;;;22.02;32.34
76827;BME280;65788;52.284;20.890;2023-03-20T08:55:01;100290.65;;;22.11;32.20
76827;BME280;65788;52.284;20.890;2023-03-20T08:57:29;100292.39;;;22.21;32.09
76827;BME280;65788;52.284;20.890;2023-03-20T08:59:56;100294.86;;;22.15;32.09
76827;BME280;65788;52.284;20.890;2023-03-20T09:02:23;100293.84;;;22.14;32.12
76827;BME280;65788;52.284;20.890;2023-03-20T09:04:50;100295.01;;;22.17;32.09
76827;BME280;65788;52.284;20.890;2023-03-20T09:07:17;100295.34;;;22.22;32.01
76827;BME280;65788;52.284;20.890;2023-03-20T09:09:44;100294.23;;;22.24;31.92
76827;BME280;65788;52.284;20.890;2023-03-20T09:12:11;100293.70;;;22.25;31.84
76827;BME280;65788;52.284;20.890;2023-03-20T09:14:38;100293.65;;;22.23;31.74
76827;BME280;65788;52.284;20.890;2023-03-20T09:17:06;100291.36;;;22.23;31.74
76827;BME280;65788;52.284;20.890;2023-03-20T09:19:33;100292.04;;;22.24;31.80
76827;BME280;65788;52.284;20.890;2023-03-20T09:22:00;100289.25;;;22.18;31.87
76827;BME280;65788;52.284;20.890;2023-03-20T09:24:27;100289.31;;;22.14;31.80
76827;BME280;65788;52.284;20.890;2023-03-20T09:26:54;100283.69;;;22.09;31.91
76827;BME280;65788;52.284;20.890;2023-03-20T09:29:21;100281.69;;;22.07;31.93
76827;BME280;65788;52.284;20.890;2023-03-20T09:31:48;100281.26;;;22.07;31.88
76827;BME280;65788;52.284;20.890;2023-03-20T09:34:16;100281.34;;;22.07;31.88
76827;BME280;65788;52.284;20.890;2023-03-20T09:36:43;100281.59;;;22.17;32.44
76827;BME280;65788;52.284;20.890;2023-03-20T09:39:10;100277.38;;;22.21;33.92
76827;BME280;65788;52.284;20.890;2023-03-20T09:41:38;100279.19;;;22.37;34.73
76827;BME280;65788;52.284;20.890;2023-03-20T09:47:08;100287.01;;;22.23;34.00
76827;BME280;65788;52.284;20.890;2023-03-20T09:52:31;100284.79;;;22.13;33.32
76827;BME280;65788;52.284;20.890;2023-03-20T09:55:04;100284.52;;;22.09;33.19
76827;BME280;65788;52.284;20.890;2023-03-20T09:57:41;100284.88;;;22.04;33.16
76827;BME280;65788;52.284;20.890;2023-03-20T10:00:18;100287.45;;;21.97;33.25
76827;BME280;65788;52.284;20.890;2023-03-20T10:02:47;100287.27;;;22.00;33.05
76827;BME280;65788;52.284;20.890;2023-03-20T10:05:24;100284.48;;;21.95;33.09
76827;BME280;65788;52.284;20.890;2023-03-20T10:07:57;100285.45;;;21.91;33.11
76827;BME280;65788;52.284;20.890;2023-03-20T10:15:51;100287.46;;;22.30;32.38
76827;BME280;65788;52.284;20.890;2023-03-20T10:18:26;100288.55;;;22.36;32.35
76827;BME280;65788;52.284;20.890;2023-03-20T10:21:05;100286.05;;;22.42;32.46
76827;BME280;65788;52.284;20.890;2023-03-20T10:26:25;100281.92;;;22.47;32.38
76827;BME280;65788;52.284;20.890;2023-03-20T10:28:57;100279.91;;;22.47;32.29
76827;BME280;65788;52.284;20.890;2023-03-20T10:34:29;100281.24;;;22.46;32.49
76827;BME280;65788;52.284;20.890;2023-03-20T10:42:47;100280.60;;;22.37;32.04
76827;BME280;65788;52.284;20.890;2023-03-20T10:45:36;100278.36;;;22.44;32.51
76827;BME280;65788;52.284;20.890;2023-03-20T10:48:14;100281.38;;;22.52;34.48
76827;BME280;65788;52.284;20.890;2023-03-20T10:50:55;100279.81;;;22.57;34.63
76827;BME280;65788;52.284;20.890;2023-03-20T10:53:36;100276.33;;;22.62;34.48
76827;BME280;65788;52.284;20.890;2023-03-20T10:56:12;100272.02;;;22.55;34.42
76827;BME280;65788;52.284;20.890;2023-03-20T10:58:44;100265.56;;;22.46;34.03
76827;BME280;65788;52.284;20.890;2023-03-20T11:01:13;100268.95;;;22.45;34.03
76827;BME280;65788;52.284;20.890;2023-03-20T11:03:42;100265.04;;;22.60;34.52
76827;BME280;65788;52.284;20.890;2023-03-20T11:06:22;100262.30;;;22.50;34.02
76827;BME280;65788;52.284;20.890;2023-03-20T11:08:52;100259.56;;;22.49;33.79
76827;BME280;65788;52.284;20.890;2023-03-20T11:11:25;100257.04;;;22.57;33.54
76827;BME280;65788;52.284;20.890;2023-03-20T11:13:53;100252.89;;;22.50;33.50
76827;BME280;65788;52.284;20.890;2023-03-20T11:16:30;100251.35;;;22.35;33.02
76827;BME280;65788;52.284;20.890;2023-03-20T11:19:05;100251.77;;;22.26;33.70
76827;BME280;65788;52.284;20.890;2023-03-20T11:21:34;100251.05;;;22.30;33.88
76827;BME280;65788;52.284;20.890;2023-03-20T11:26:47;100242.67;;;22.22;33.83
76827;BME280;65788;52.284;20.890;2023-03-20T11:29:34;100242.66;;;22.19;33.83
76827;BME280;65788;52.284;20.890;2023-03-20T11:34:41;100237.27;;;22.09;34.25
76827;BME280;65788;52.284;20.890;2023-03-20T11:37:27;100232.16;;;22.07;34.09
76827;BME280;65788;52.284;20.890;2023-03-20T11:42:37;100233.51;;;22.11;33.57
76827;BME280;65788;52.284;20.890;2023-03-20T11:45:15;100232.73;;;22.11;33.63
76827;BME280;65788;52.284;20.890;2023-03-20T11:47:42;100233.00;;;22.10;33.52
76827;BME280;65788;52.284;20.890;2023-03-20T11:50:37;100227.46;;;22.04;33.57
76827;BME280;65788;52.284;20.890;2023-03-20T11:53:24;100227.02;;;21.97;33.67
76827;BME280;65788;52.284;20.890;2023-03-20T11:56:10;100223.91;;;21.95;33.58
76827;BME280;65788;52.284;20.890;2023-03-20T11:59:00;100220.21;;;21.98;33.61
76827;BME280;65788;52.284;20.890;2023-03-20T12:01:38;100215.43;;;21.97;33.50
76827;BME280;65788;52.284;20.890;2023-03-20T12:04:14;100213.64;;;21.96;33.50
76827;BME280;65788;52.284;20.890;2023-03-20T12:12:20;100208.77;;;22.00;33.15
76827;BME280;65788;52.284;20.890;2023-03-20T12:14:55;100209.67;;;21.97;33.21
76827;BME280;65788;52.284;20.890;2023-03-20T12:17:46;100204.17;;;21.92;33.33
76827;BME280;65788;52.284;20.890;2023-03-20T12:26:00;100211.56;;;21.86;33.22
76827;BME280;65788;52.284;20.890;2023-03-20T12:29:18;100208.98;;;21.83;33.28
76827;BME280;65788;52.284;20.890;2023-03-20T12:31:57;100203.81;;;21.84;33.07
76827;BME280;65788;52.284;20.890;2023-03-20T12:34:35;100205.13;;;21.87;33.11
76827;BME280;65788;52.284;20.890;2023-03-20T12:37:03;100208.00;;;21.89;32.99
76827;BME280;65788;52.284;20.890;2023-03-20T12:39:37;100206.28;;;21.87;32.97
76827;BME280;65788;52.284;20.890;2023-03-20T12:50:09;100203.55;;;22.27;32.38
76827;BME280;65788;52.284;20.890;2023-03-20T13:01:23;100208.30;;;22.02;32.50
76827;BME280;65788;52.284;20.890;2023-03-20T13:06:54;100203.73;;;21.99;32.86
76827;BME280;65788;52.284;20.890;2023-03-20T13:12:39;100197.53;;;22.19;32.11
76827;BME280;65788;52.284;20.890;2023-03-20T13:15:23;100198.78;;;22.23;32.38
76827;BME280;65788;52.284;20.890;2023-03-20T13:18:03;100193.84;;;22.30;32.13
76827;BME280;65788;52.284;20.890;2023-03-20T13:20:57;100200.09;;;22.35;31.97
76827;BME280;65788;52.284;20.890;2023-03-20T13:23:44;100195.38;;;22.39;32.41
76827;BME280;65788;52.284;20.890;2023-03-20T13:31:44;100194.66;;;22.16;32.52
76827;BME280;65788;52.284;20.890;2023-03-20T13:40:26;100187.33;;;22.09;32.17
76827;BME280;65788;52.284;20.890;2023-03-20T13:45:38;100187.21;;;22.00;32.69
76827;BME280;65788;52.284;20.890;2023-03-20T13:51:15;100184.77;;;21.96;34.55
76827;BME280;65788;52.284;20.890;2023-03-20T14:04:44;100184.96;;;21.53;35.20
76827;BME280;65788;52.284;20.890;2023-03-20T14:07:34;100188.48;;;21.52;35.29
76827;BME280;65788;52.284;20.890;2023-03-20T14:12:54;100191.23;;;21.41;35.67
76827;BME280;65788;52.284;20.890;2023-03-20T14:15:26;100192.86;;;20.89;37.53
76827;BME280;65788;52.284;20.890;2023-03-20T14:17:54;100192.73;;;20.89;37.45
76827;BME280;65788;52.284;20.890;2023-03-20T14:20:28;100199.83;;;21.29;35.06
76827;BME280;65788;52.284;20.890;2023-03-20T14:22:56;100200.45;;;21.39;34.15
76827;BME280;65788;52.284;20.890;2023-03-20T14:25:24;100202.36;;;21.39;34.30
76827;BME280;65788;52.284;20.890;2023-03-20T14:33:22;100205.52;;;21.45;34.25
76827;BME280;65788;52.284;20.890;2023-03-20T14:36:10;100208.86;;;21.45;34.58
76827;BME280;65788;52.284;20.890;2023-03-20T14:41:53;100204.77;;;21.33;34.78
76827;BME280;65788;52.284;20.890;2023-03-20T14:47:21;100206.67;;;21.33;34.73
76827;BME280;65788;52.284;20.890;2023-03-20T14:57:43;100214.10;;;21.21;34.89
76827;BME280;65788;52.284;20.890;2023-03-20T15:00:21;100217.00;;;21.21;34.94
76827;BME280;65788;52.284;20.890;2023-03-20T15:03:10;100212.05;;;21.19;34.95
76827;BME280;65788;52.284;20.890;2023-03-20T15:05:39;100211.48;;;21.19;34.98
76827;BME280;65788;52.284;20.890;2023-03-20T15:08:16;100208.63;;;21.16;35.05
76827;BME280;65788;52.284;20.890;2023-03-20T15:10:55;100202.98;;;21.15;35.06
76827;BME280;65788;52.284;20.890;2023-03-20T15:13:24;100201.34;;;21.14;35.03
76827;BME280;65788;52.284;20.890;2023-03-20T15:16:02;100199.23;;;21.09;35.06
76827;BME280;65788;52.284;20.890;2023-03-20T15:18:29;100207.06;;;21.12;35.03
76827;BME280;65788;52.284;20.890;2023-03-20T15:20:56;100203.34;;;21.12;35.05
76827;BME280;65788;52.284;20.890;2023-03-20T15:23:24;100203.17;;;21.09;35.12
76827;BME280;65788;52.284;20.890;2023-03-20T15:25:52;100205.60;;;21.09;35.11